sensor_id;sensor_type;location;lat;lon;timestamp;pressure;altitude;pressure_sealevel;temperature;humidity
10706;BME280;5404;42.656;23.336;2023-04-24T00:00:20;94585.84;;;11.50;100.00
10706;BME280;5404;42.656;23.336;2023-04-24T00:02:47;94584.25;;;11.49;100.00
10706;BME280;5404;42.656;23.336;2023-04-24T00:05:14;94596.69;;;11.54;100.00
10706;BME280;5404;42.656;23.336;2023-04-24T00:07:42;94588.78;;;11.49;100.00
10706;BME280;5404;42.656;23.336;2023-04-24T00:10:08;94578.72;;;11.46;100.00
10706;BME280;5404;42.656;23.336;2023-04-24T00:12:33;94574.94;;;11.38;100.00
10706;BME280;5404;42.656;23.336;2023-04-24T00:14:59;94578.19;;;11.35;100.00
10706;BME280;5404;42.656;23.336;2023-04-24T00:17:24;94570.81;;;11.32;100.00
10706;BME280;5404;42.656;23.336;2023-04-24T00:19:50;94569.69;;;11.33;100.00
10706;BME280;5404;42.656;23.336;2023-04-24T00:22:16;94577.00;;;11.19;100.00
10706;BME280;5404;42.656;23.336;2023-04-24T00:24:42;94571.00;;;11.14;100.00
10706;BME280;5404;42.656;23.336;2023-04-24T00:27:09;94570.94;;;11.05;100.00
10706;BME280;5404;42.656;23.336;2023-04-24T00:29:34;94591.50;;;10.91;100.00
10706;BME280;5404;42.656;23.336;2023-04-24T00:32:00;94591.25;;;10.79;100.00
10706;BME280;5404;42.656;23.336;2023-04-24T00:34:25;94599.16;;;10.71;100.00
10706;BME280;5404;42.656;23.336;2023-04-24T00:36:51;94588.63;;;10.66;100.00
10706;BME280;5404;42.656;23.336;2023-04-24T00:39:20;94590.28;;;10.62;100.00
10706;BME280;5404;42.656;23.336;2023-04-24T00:41:48;94581.03;;;10.59;100.00
10706;BME280;5404;42.656;23.336;2023-04-24T00:44:14;94600.34;;;10.65;100.00
10706;BME280;5404;42.656;23.336;2023-04-24T00:46:40;94584.19;;;10.61;100.00
10706;BME280;5404;42.656;23.336;2023-04-24T00:49:06;94584.56;;;10.68;100.00
10706;BME280;5404;42.656;23.336;2023-04-24T00:51:32;94584.47;;;10.73;100.00
10706;BME280;5404;42.656;23.336;2023-04-24T00:53:58;94594.53;;;10.76;100.00
10706;BME280;5404;42.656;23.336;2023-04-24T00:56:24;94586.72;;;10.80;100.00
10706;BME280;5404;42.656;23.336;2023-04-24T00:58:50;94578.72;;;10.80;100.00
10706;BME280;5404;42.656;23.336;2023-04-24T01:01:16;94589.94;;;10.90;100.00
10706;BME280;5404;42.656;23.336;2023-04-24T01:03:43;94585.69;;;10.89;100.00
10706;BME280;5404;42.656;23.336;2023-04-24T01:06:09;94578.38;;;10.95;100.00
10706;BME280;5404;42.656;23.336;2023-04-24T01:08:37;94578.56;;;10.98;100.00
10706;BME280;5404;42.656;23.336;2023-04-24T01:11:04;94573.72;;;11.00;100.00
10706;BME280;5404;42.656;23.336;2023-04-24T01:13:31;94589.09;;;11.03;100.00
10706;BME280;5404;42.656;23.336;2023-04-24T01:15:57;94586.56;;;10.98;100.00
10706;BME280;5404;42.656;23.336;2023-04-24T01:18:22;94572.56;;;10.93;100.00
10706;BME280;5404;42.656;23.336;2023-04-24T01:20:50;94564.72;;;10.74;100.00
10706;BME280;5404;42.656;23.336;2023-04-24T01:23:16;94576.56;;;10.68;100.00
10706;BME280;5404;42.656;23.336;2023-04-24T01:25:42;94563.34;;;10.63;100.00
10706;BME280;5404;42.656;23.336;2023-04-24T01:28:08;94562.63;;;10.49;100.00
10706;BME280;5404;42.656;23.336;2023-04-24T01:30:34;94560.03;;;10.44;100.00
10706;BME280;5404;42.656;23.336;2023-04-24T01:33:00;94556.34;;;10.31;100.00
10706;BME280;5404;42.656;23.336;2023-04-24T01:35:26;94561.75;;;10.26;100.00
10706;BME280;5404;42.656;23.336;2023-04-24T01:37:54;94568.75;;;10.22;100.00
10706;BME280;5404;42.656;23.336;2023-04-24T01:40:19;94562.75;;;10.17;100.00
10706;BME280;5404;42.656;23.336;2023-04-24T01:42:45;94552.09;;;10.17;100.00
10706;BME280;5404;42.656;23.336;2023-04-24T01:45:12;94561.69;;;10.18;100.00
10706;BME280;5404;42.656;23.336;2023-04-24T01:47:40;94562.53;;;10.13;100.00
10706;BME280;5404;42.656;23.336;2023-04-24T01:50:06;94562.66;;;10.08;100.00
10706;BME280;5404;42.656;23.336;2023-04-24T01:52:32;94563.50;;;10.04;100.00
10706;BME280;5404;42.656;23.336;2023-04-24T01:55:03;94562.63;;;9.95;100.00
10706;BME280;5404;42.656;23.336;2023-04-24T01:57:30;94568.25;;;9.93;100.00
10706;BME280;5404;42.656;23.336;2023-04-24T01:59:57;94554.63;;;9.81;100.00
10706;BME280;5404;42.656;23.336;2023-04-24T02:02:23;94568.75;;;9.82;100.00
10706;BME280;5404;42.656;23.336;2023-04-24T02:04:50;94549.59;;;9.66;100.00
10706;BME280;5404;42.656;23.336;2023-04-24T02:07:15;94567.66;;;9.83;100.00
10706;BME280;5404;42.656;23.336;2023-04-24T02:09:41;94562.50;;;9.73;100.00
10706;BME280;5404;42.656;23.336;2023-04-24T02:12:07;94580.03;;;9.74;100.00
10706;BME280;5404;42.656;23.336;2023-04-24T02:14:32;94581.03;;;9.64;100.00
10706;BME280;5404;42.656;23.336;2023-04-24T02:16:58;94564.97;;;9.56;100.00
10706;BME280;5404;42.656;23.336;2023-04-24T02:19:25;94562.69;;;9.49;100.00
10706;BME280;5404;42.656;23.336;2023-04-24T02:21:52;94575.19;;;9.49;100.00
10706;BME280;5404;42.656;23.336;2023-04-24T02:24:18;94582.66;;;9.47;100.00
10706;BME280;5404;42.656;23.336;2023-04-24T02:26:43;94576.47;;;9.51;100.00
10706;BME280;5404;42.656;23.336;2023-04-24T02:29:09;94578.16;;;9.47;100.00
10706;BME280;5404;42.656;23.336;2023-04-24T02:31:36;94549.94;;;9.32;100.00
10706;BME280;5404;42.656;23.336;2023-04-24T02:34:01;94576.34;;;9.42;100.00
10706;BME280;5404;42.656;23.336;2023-04-24T02:36:27;94567.09;;;9.40;100.00
10706;BME280;5404;42.656;23.336;2023-04-24T02:38:52;94565.50;;;9.39;100.00
10706;BME280;5404;42.656;23.336;2023-04-24T02:41:20;94547.78;;;9.34;100.00
10706;BME280;5404;42.656;23.336;2023-04-24T02:43:46;94554.19;;;9.33;100.00
10706;BME280;5404;42.656;23.336;2023-04-24T02:46:12;94549.81;;;9.24;100.00
10706;BME280;5404;42.656;23.336;2023-04-24T02:48:37;94553.84;;;9.21;100.00
10706;BME280;5404;42.656;23.336;2023-04-24T02:51:03;94559.19;;;9.21;100.00
10706;BME280;5404;42.656;23.336;2023-04-24T02:53:29;94554.94;;;9.20;100.00
10706;BME280;5404;42.656;23.336;2023-04-24T02:55:56;94559.19;;;9.21;100.00
10706;BME280;5404;42.656;23.336;2023-04-24T02:58:21;94564.66;;;9.11;100.00
10706;BME280;5404;42.656;23.336;2023-04-24T03:00:47;94570.25;;;9.10;100.00
10706;BME280;5404;42.656;23.336;2023-04-24T03:03:12;94572.63;;;9.11;100.00
10706;BME280;5404;42.656;23.336;2023-04-24T03:05:38;94563.88;;;9.11;100.00
10706;BME280;5404;42.656;23.336;2023-04-24T03:08:04;94575.78;;;9.13;100.00
10706;BME280;5404;42.656;23.336;2023-04-24T03:10:30;94574.72;;;9.14;100.00
10706;BME280;5404;42.656;23.336;2023-04-24T03:12:55;94574.72;;;9.14;100.00
10706;BME280;5404;42.656;23.336;2023-04-24T03:15:20;94577.06;;;9.16;100.00
10706;BME280;5404;42.656;23.336;2023-04-24T03:17:46;94584.03;;;9.12;100.00
10706;BME280;5404;42.656;23.336;2023-04-24T03:20:12;94579.31;;;9.09;100.00
10706;BME280;5404;42.656;23.336;2023-04-24T03:22:37;94583.75;;;9.13;100.00
10706;BME280;5404;42.656;23.336;2023-04-24T03:25:03;94577.88;;;9.16;100.00
10706;BME280;5404;42.656;23.336;2023-04-24T03:27:29;94574.50;;;9.11;100.00
10706;BME280;5404;42.656;23.336;2023-04-24T03:29:55;94578.00;;;9.06;100.00
10706;BME280;5404;42.656;23.336;2023-04-24T03:32:21;94506.00;;;8.57;100.00
10706;BME280;5404;42.656;23.336;2023-04-24T03:34:49;94587.28;;;9.09;100.00
10706;BME280;5404;42.656;23.336;2023-04-24T03:37:16;94581.66;;;9.10;100.00
10706;BME280;5404;42.656;23.336;2023-04-24T03:39:43;94583.31;;;9.06;100.00
10706;BME280;5404;42.656;23.336;2023-04-24T03:42:08;94575.34;;;9.06;100.00
10706;BME280;5404;42.656;23.336;2023-04-24T03:44:35;94582.97;;;9.13;100.00
10706;BME280;5404;42.656;23.336;2023-04-24T03:47:01;94563.22;;;9.00;100.00
10706;BME280;5404;42.656;23.336;2023-04-24T03:49:29;94579.13;;;9.19;100.00
10706;BME280;5404;42.656;23.336;2023-04-24T03:51:55;94582.00;;;9.22;100.00
10706;BME280;5404;42.656;23.336;2023-04-24T03:54:20;94584.78;;;9.31;100.00
10706;BME280;5404;42.656;23.336;2023-04-24T03:56:46;94557.06;;;9.18;100.00
10706;BME280;5404;42.656;23.336;2023-04-24T03:59:12;94576.44;;;9.37;100.00
10706;BME280;5404;42.656;23.336;2023-04-24T04:01:38;94586.03;;;9.52;100.00
10706;BME280;5404;42.656;23.336;2023-04-24T04:04:05;94592.94;;;9.67;100.00
10706;BME280;5404;42.656;23.336;2023-04-24T04:06:30;94592.38;;;9.83;100.00
10706;BME280;5404;42.656;23.336;2023-04-24T04:08:56;94582.72;;;9.87;100.00
10706;BME280;5404;42.656;23.336;2023-04-24T04:11:22;94573.88;;;9.92;100.00
10706;BME280;5404;42.656;23.336;2023-04-24T04:13:47;94583.00;;;9.99;100.00
10706;BME280;5404;42.656;23.336;2023-04-24T04:16:13;94577.31;;;10.06;100.00
10706;BME280;5404;42.656;23.336;2023-04-24T04:18:40;94570.22;;;10.15;100.00
10706;BME280;5404;42.656;23.336;2023-04-24T04:21:05;94554.75;;;10.17;100.00
10706;BME280;5404;42.656;23.336;2023-04-24T04:23:31;94560.84;;;10.31;100.00
10706;BME280;5404;42.656;23.336;2023-04-24T04:25:58;94567.75;;;10.45;100.00
10706;BME280;5404;42.656;23.336;2023-04-24T04:28:23;94559.25;;;10.57;100.00
10706;BME280;5404;42.656;23.336;2023-04-24T04:30:51;94561.97;;;10.66;100.00
10706;BME280;5404;42.656;23.336;2023-04-24T04:33:22;94531.81;;;10.56;100.00
10706;BME280;5404;42.656;23.336;2023-04-24T04:35:48;94520.00;;;10.49;100.00
10706;BME280;5404;42.656;23.336;2023-04-24T04:38:15;94558.66;;;10.82;100.00
10706;BME280;5404;42.656;23.336;2023-04-24T04:40:45;94565.47;;;10.88;100.00
10706;BME280;5404;42.656;23.336;2023-04-24T04:43:11;94559.28;;;11.01;100.00
10706;BME280;5404;42.656;23.336;2023-04-24T04:45:39;94550.22;;;11.02;100.00
10706;BME280;5404;42.656;23.336;2023-04-24T04:48:06;94543.41;;;10.96;100.00
10706;BME280;5404;42.656;23.336;2023-04-24T04:50:34;94559.41;;;10.96;100.00
10706;BME280;5404;42.656;23.336;2023-04-24T04:53:01;94551.41;;;10.96;100.00
10706;BME280;5404;42.656;23.336;2023-04-24T04:55:28;94558.09;;;11.07;100.00
10706;BME280;5404;42.656;23.336;2023-04-24T04:57:55;94555.72;;;11.06;100.00
10706;BME280;5404;42.656;23.336;2023-04-24T05:00:22;94563.31;;;11.12;100.00
10706;BME280;5404;42.656;23.336;2023-04-24T05:02:51;94550.47;;;11.14;100.00
10706;BME280;5404;42.656;23.336;2023-04-24T05:05:16;94549.41;;;11.24;100.00
10706;BME280;5404;42.656;23.336;2023-04-24T05:07:43;94533.22;;;11.20;100.00
10706;BME280;5404;42.656;23.336;2023-04-24T05:10:09;94546.13;;;11.27;100.00
10706;BME280;5404;42.656;23.336;2023-04-24T05:12:34;94548.94;;;11.22;100.00
10706;BME280;5404;42.656;23.336;2023-04-24T05:15:01;94540.25;;;11.16;100.00
10706;BME280;5404;42.656;23.336;2023-04-24T05:17:28;94550.91;;;11.16;100.00
10706;BME280;5404;42.656;23.336;2023-04-24T05:19:53;94538.25;;;11.22;100.00
10706;BME280;5404;42.656;23.336;2023-04-24T05:22:19;94544.13;;;11.32;100.00
10706;BME280;5404;42.656;23.336;2023-04-24T05:24:46;94545.59;;;11.38;100.00
10706;BME280;5404;42.656;23.336;2023-04-24T05:27:12;94532.25;;;11.38;100.00
10706;BME280;5404;42.656;23.336;2023-04-24T05:29:37;94534.31;;;11.41;100.00
10706;BME280;5404;42.656;23.336;2023-04-24T05:32:03;94514.19;;;11.35;100.00
10706;BME280;5404;42.656;23.336;2023-04-24T05:34:28;94536.84;;;11.46;100.00
10706;BME280;5404;42.656;23.336;2023-04-24T05:36:54;94530.00;;;11.54;100.00
10706;BME280;5404;42.656;23.336;2023-04-24T05:39:22;94529.75;;;11.64;100.00
10706;BME280;5404;42.656;23.336;2023-04-24T05:41:47;94546.13;;;11.71;100.00
10706;BME280;5404;42.656;23.336;2023-04-24T05:44:13;94524.44;;;11.73;100.00
10706;BME280;5404;42.656;23.336;2023-04-24T05:46:39;94545.13;;;11.98;100.00
10706;BME280;5404;42.656;23.336;2023-04-24T05:49:05;94531.97;;;12.10;100.00
10706;BME280;5404;42.656;23.336;2023-04-24T05:51:32;94538.88;;;12.11;100.00
10706;BME280;5404;42.656;23.336;2023-04-24T05:53:57;94540.78;;;12.19;100.00
10706;BME280;5404;42.656;23.336;2023-04-24T05:56:23;94523.97;;;12.18;100.00
10706;BME280;5404;42.656;23.336;2023-04-24T05:58:49;94531.34;;;12.21;100.00
10706;BME280;5404;42.656;23.336;2023-04-24T06:01:14;94520.22;;;12.19;100.00
10706;BME280;5404;42.656;23.336;2023-04-24T06:03:41;94523.19;;;12.26;100.00
10706;BME280;5404;42.656;23.336;2023-04-24T06:06:07;94513.25;;;12.10;100.00
10706;BME280;5404;42.656;23.336;2023-04-24T06:08:33;94497.56;;;12.08;100.00
10706;BME280;5404;42.656;23.336;2023-04-24T06:10:58;94529.00;;;12.28;100.00
10706;BME280;5404;42.656;23.336;2023-04-24T06:13:24;94522.59;;;12.38;100.00
10706;BME280;5404;42.656;23.336;2023-04-24T06:15:52;94504.56;;;12.43;100.00
10706;BME280;5404;42.656;23.336;2023-04-24T06:18:18;94510.34;;;12.54;100.00
10706;BME280;5404;42.656;23.336;2023-04-24T06:20:43;94524.84;;;12.70;100.00
10706;BME280;5404;42.656;23.336;2023-04-24T06:23:09;94510.69;;;12.78;100.00
10706;BME280;5404;42.656;23.336;2023-04-24T06:25:35;94528.31;;;12.87;100.00
10706;BME280;5404;42.656;23.336;2023-04-24T06:28:01;94524.19;;;12.90;100.00
10706;BME280;5404;42.656;23.336;2023-04-24T06:30:27;94521.72;;;13.02;100.00
10706;BME280;5404;42.656;23.336;2023-04-24T06:32:53;94518.88;;;13.24;100.00
10706;BME280;5404;42.656;23.336;2023-04-24T06:35:19;94517.59;;;13.30;100.00
10706;BME280;5404;42.656;23.336;2023-04-24T06:37:45;94521.97;;;13.43;100.00
10706;BME280;5404;42.656;23.336;2023-04-24T06:40:11;94515.16;;;13.63;100.00
10706;BME280;5404;42.656;23.336;2023-04-24T06:42:36;94512.59;;;13.75;100.00
10706;BME280;5404;42.656;23.336;2023-04-24T06:45:02;94523.22;;;13.92;100.00
10706;BME280;5404;42.656;23.336;2023-04-24T06:47:28;94521.59;;;14.08;100.00
10706;BME280;5404;42.656;23.336;2023-04-24T06:49:54;94515.66;;;14.32;100.00
10706;BME280;5404;42.656;23.336;2023-04-24T06:52:20;94517.78;;;14.47;100.00
10706;BME280;5404;42.656;23.336;2023-04-24T06:54:46;94522.13;;;14.60;100.00
10706;BME280;5404;42.656;23.336;2023-04-24T06:57:13;94515.44;;;14.66;100.00
10706;BME280;5404;42.656;23.336;2023-04-24T06:59:39;94515.19;;;14.79;100.00
10706;BME280;5404;42.656;23.336;2023-04-24T07:02:04;94506.56;;;14.94;100.00
10706;BME280;5404;42.656;23.336;2023-04-24T07:04:30;94503.16;;;15.06;100.00
10706;BME280;5404;42.656;23.336;2023-04-24T07:06:56;94497.81;;;15.18;100.00
10706;BME280;5404;42.656;23.336;2023-04-24T07:09:24;94483.25;;;15.07;100.00
10706;BME280;5404;42.656;23.336;2023-04-24T07:11:54;94493.06;;;15.03;100.00
10706;BME280;5404;42.656;23.336;2023-04-24T07:14:21;94487.72;;;15.03;100.00
10706;BME280;5404;42.656;23.336;2023-04-24T07:16:46;94498.50;;;15.15;100.00
10706;BME280;5404;42.656;23.336;2023-04-24T07:19:12;94500.72;;;15.13;100.00
10706;BME280;5404;42.656;23.336;2023-04-24T07:21:39;94488.41;;;15.12;100.00
10706;BME280;5404;42.656;23.336;2023-04-24T07:24:04;94485.47;;;15.38;100.00
10706;BME280;5404;42.656;23.336;2023-04-24T07:26:30;94491.47;;;15.55;100.00
10706;BME280;5404;42.656;23.336;2023-04-24T07:28:56;94496.53;;;15.81;100.00
10706;BME280;5404;42.656;23.336;2023-04-24T07:31:22;94485.69;;;15.89;100.00
10706;BME280;5404;42.656;23.336;2023-04-24T07:33:48;94480.56;;;15.96;100.00
10706;BME280;5404;42.656;23.336;2023-04-24T07:36:14;94480.56;;;15.96;100.00
10706;BME280;5404;42.656;23.336;2023-04-24T07:38:46;94482.25;;;16.01;100.00
10706;BME280;5404;42.656;23.336;2023-04-24T07:41:13;94482.59;;;15.99;100.00
10706;BME280;5404;42.656;23.336;2023-04-24T07:43:38;94473.97;;;15.94;100.00
10706;BME280;5404;42.656;23.336;2023-04-24T07:46:04;94477.00;;;16.04;100.00
10706;BME280;5404;42.656;23.336;2023-04-24T07:48:31;94472.16;;;16.10;100.00
10706;BME280;5404;42.656;23.336;2023-04-24T07:50:57;94469.91;;;16.12;100.00
10706;BME280;5404;42.656;23.336;2023-04-24T07:53:23;94463.09;;;16.14;100.00
10706;BME280;5404;42.656;23.336;2023-04-24T07:55:49;94470.81;;;15.92;100.00
10706;BME280;5404;42.656;23.336;2023-04-24T07:58:16;94464.66;;;15.79;100.00
10706;BME280;5404;42.656;23.336;2023-04-24T08:00:41;94462.75;;;15.68;100.00
10706;BME280;5404;42.656;23.336;2023-04-24T08:03:06;94458.94;;;15.81;100.00
10706;BME280;5404;42.656;23.336;2023-04-24T08:05:32;94458.84;;;16.01;100.00
10706;BME280;5404;42.656;23.336;2023-04-24T08:07:58;94453.78;;;16.24;100.00
10706;BME280;5404;42.656;23.336;2023-04-24T08:10:24;94457.69;;;16.39;100.00
10706;BME280;5404;42.656;23.336;2023-04-24T08:12:50;94464.66;;;16.52;100.00
10706;BME280;5404;42.656;23.336;2023-04-24T08:15:15;94459.03;;;16.57;100.00
10706;BME280;5404;42.656;23.336;2023-04-24T08:17:42;94456.88;;;16.74;100.00
10706;BME280;5404;42.656;23.336;2023-04-24T08:20:11;94456.22;;;16.93;100.00
10706;BME280;5404;42.656;23.336;2023-04-24T08:22:40;94450.59;;;16.98;100.00
10706;BME280;5404;42.656;23.336;2023-04-24T08:25:06;94436.50;;;17.01;100.00
10706;BME280;5404;42.656;23.336;2023-04-24T08:27:32;94445.75;;;17.31;100.00
10706;BME280;5404;42.656;23.336;2023-04-24T08:29:58;94446.53;;;17.59;100.00
10706;BME280;5404;42.656;23.336;2023-04-24T08:32:25;94441.81;;;17.56;100.00
10706;BME280;5404;42.656;23.336;2023-04-24T08:34:56;94440.16;;;17.52;100.00
10706;BME280;5404;42.656;23.336;2023-04-24T08:37:25;94444.66;;;17.48;100.00
10706;BME280;5404;42.656;23.336;2023-04-24T08:39:50;94432.44;;;17.50;100.00
10706;BME280;5404;42.656;23.336;2023-04-24T08:42:17;94436.06;;;17.42;100.00
10706;BME280;5404;42.656;23.336;2023-04-24T08:44:43;94429.75;;;17.50;100.00
10706;BME280;5404;42.656;23.336;2023-04-24T08:47:10;94425.81;;;17.63;100.00
10706;BME280;5404;42.656;23.336;2023-04-24T08:49:37;94427.06;;;17.66;100.00
10706;BME280;5404;42.656;23.336;2023-04-24T08:52:03;94422.28;;;17.75;100.00
10706;BME280;5404;42.656;23.336;2023-04-24T08:54:31;94412.28;;;17.75;100.00
10706;BME280;5404;42.656;23.336;2023-04-24T08:57:00;94409.75;;;17.82;100.00
10706;BME280;5404;42.656;23.336;2023-04-24T08:59:37;94403.81;;;17.92;100.00
10706;BME280;5404;42.656;23.336;2023-04-24T09:02:03;94410.59;;;18.02;100.00
10706;BME280;5404;42.656;23.336;2023-04-24T09:04:30;94403.94;;;18.30;100.00
10706;BME280;5404;42.656;23.336;2023-04-24T09:06:58;94396.91;;;18.41;97.62
10706;BME280;5404;42.656;23.336;2023-04-24T09:09:24;94398.44;;;18.42;98.03
10706;BME280;5404;42.656;23.336;2023-04-24T09:11:51;94397.97;;;18.56;97.63
10706;BME280;5404;42.656;23.336;2023-04-24T09:14:19;94389.66;;;18.65;97.27
10706;BME280;5404;42.656;23.336;2023-04-24T09:16:45;94392.06;;;18.89;93.15
10706;BME280;5404;42.656;23.336;2023-04-24T09:19:10;94390.44;;;19.03;91.67
10706;BME280;5404;42.656;23.336;2023-04-24T09:21:36;94389.28;;;19.23;89.29
10706;BME280;5404;42.656;23.336;2023-04-24T09:24:07;94380.50;;;19.49;87.94
10706;BME280;5404;42.656;23.336;2023-04-24T09:26:36;94379.13;;;19.81;86.02
10706;BME280;5404;42.656;23.336;2023-04-24T09:29:03;94372.47;;;20.53;82.38
10706;BME280;5404;42.656;23.336;2023-04-24T09:31:29;94361.44;;;21.35;76.32
10706;BME280;5404;42.656;23.336;2023-04-24T09:34:03;94355.81;;;21.98;69.01
10706;BME280;5404;42.656;23.336;2023-04-24T09:36:40;94361.44;;;22.26;64.83
10706;BME280;5404;42.656;23.336;2023-04-24T09:39:12;94344.91;;;22.52;62.09
10706;BME280;5404;42.656;23.336;2023-04-24T09:41:54;94354.50;;;23.07;59.78
10706;BME280;5404;42.656;23.336;2023-04-24T09:44:27;94360.06;;;23.64;55.80
10706;BME280;5404;42.656;23.336;2023-04-24T09:46:58;94363.56;;;23.61;56.14
10706;BME280;5404;42.656;23.336;2023-04-24T09:51:51;94354.19;;;24.53;50.86
10706;BME280;5404;42.656;23.336;2023-04-24T09:54:21;94354.78;;;25.13;48.66
10706;BME280;5404;42.656;23.336;2023-04-24T09:56:48;94354.28;;;25.40;46.77
10706;BME280;5404;42.656;23.336;2023-04-24T09:59:17;94356.16;;;26.08;45.60
10706;BME280;5404;42.656;23.336;2023-04-24T10:01:44;94347.66;;;26.43;43.25
10706;BME280;5404;42.656;23.336;2023-04-24T10:06:48;94311.78;;;26.75;40.23
10706;BME280;5404;42.656;23.336;2023-04-24T10:09:15;94333.75;;;27.01;39.35
10706;BME280;5404;42.656;23.336;2023-04-24T10:11:42;94313.19;;;27.50;39.09
10706;BME280;5404;42.656;23.336;2023-04-24T10:14:11;94294.03;;;28.00;37.19
10706;BME280;5404;42.656;23.336;2023-04-24T10:16:39;94314.53;;;28.34;36.03
10706;BME280;5404;42.656;23.336;2023-04-24T10:19:06;94252.91;;;27.77;36.00
10706;BME280;5404;42.656;23.336;2023-04-24T10:21:32;94307.66;;;28.69;34.91
10706;BME280;5404;42.656;23.336;2023-04-24T10:23:58;94302.66;;;28.64;34.26
10706;BME280;5404;42.656;23.336;2023-04-24T10:26:26;94301.50;;;28.65;34.75
10706;BME280;5404;42.656;23.336;2023-04-24T10:28:53;94303.72;;;28.90;35.10
10706;BME280;5404;42.656;23.336;2023-04-24T10:31:20;94303.69;;;28.08;33.79
10706;BME280;5404;42.656;23.336;2023-04-24T10:33:46;94301.53;;;26.49;37.13
10706;BME280;5404;42.656;23.336;2023-04-24T10:36:15;94300.41;;;24.82;40.50
10706;BME280;5404;42.656;23.336;2023-04-24T10:38:41;94294.38;;;23.90;43.65
10706;BME280;5404;42.656;23.336;2023-04-24T10:41:13;94289.34;;;23.85;42.78
10706;BME280;5404;42.656;23.336;2023-04-24T10:43:45;94292.44;;;24.08;42.90
10706;BME280;5404;42.656;23.336;2023-04-24T10:46:19;94291.56;;;24.46;41.98
10706;BME280;5404;42.656;23.336;2023-04-24T10:48:52;94262.47;;;24.22;42.56
10706;BME280;5404;42.656;23.336;2023-04-24T10:51:23;94222.91;;;23.54;43.84
10706;BME280;5404;42.656;23.336;2023-04-24T10:53:53;94275.16;;;24.67;43.44
10706;BME280;5404;42.656;23.336;2023-04-24T10:56:18;94281.69;;;24.91;39.32
10706;BME280;5404;42.656;23.336;2023-04-24T10:58:50;94273.72;;;25.21;39.29
10706;BME280;5404;42.656;23.336;2023-04-24T11:01:31;94261.19;;;25.30;39.10
10706;BME280;5404;42.656;23.336;2023-04-24T11:04:02;94258.22;;;25.11;40.11
10706;BME280;5404;42.656;23.336;2023-04-24T11:06:35;94257.78;;;25.19;39.97
10706;BME280;5404;42.656;23.336;2023-04-24T11:09:06;94260.59;;;25.05;39.47
10706;BME280;5404;42.656;23.336;2023-04-24T11:11:33;94245.31;;;24.36;39.89
10706;BME280;5404;42.656;23.336;2023-04-24T11:14:03;94252.63;;;24.49;40.38
10706;BME280;5404;42.656;23.336;2023-04-24T11:22:04;94259.13;;;22.37;46.62
10706;BME280;5404;42.656;23.336;2023-04-24T11:27:19;94276.16;;;21.26;55.75
10706;BME280;5404;42.656;23.336;2023-04-24T11:29:58;94278.19;;;20.59;63.22
10706;BME280;5404;42.656;23.336;2023-04-24T11:32:38;94276.97;;;19.22;71.70
10706;BME280;5404;42.656;23.336;2023-04-24T11:35:14;94288.81;;;18.92;84.94
10706;BME280;5404;42.656;23.336;2023-04-24T11:37:52;94291.81;;;18.68;88.70
10706;BME280;5404;42.656;23.336;2023-04-24T11:40:19;94314.78;;;18.23;88.35
10706;BME280;5404;42.656;23.336;2023-04-24T11:42:52;94309.19;;;17.97;91.66
10706;BME280;5404;42.656;23.336;2023-04-24T11:45:23;94312.81;;;17.86;92.62
10706;BME280;5404;42.656;23.336;2023-04-24T11:47:49;94314.53;;;17.94;97.75
10706;BME280;5404;42.656;23.336;2023-04-24T11:50:17;94314.19;;;17.95;100.00
10706;BME280;5404;42.656;23.336;2023-04-24T11:52:46;94306.72;;;17.54;100.00
10706;BME280;5404;42.656;23.336;2023-04-24T11:57:42;94282.28;;;17.00;100.00
10706;BME280;5404;42.656;23.336;2023-04-24T12:00:16;94201.81;;;16.64;100.00
10706;BME280;5404;42.656;23.336;2023-04-24T12:02:42;94274.88;;;17.28;100.00
10706;BME280;5404;42.656;23.336;2023-04-24T12:05:08;94277.47;;;17.56;100.00
10706;BME280;5404;42.656;23.336;2023-04-24T12:07:41;94263.03;;;17.80;100.00
10706;BME280;5404;42.656;23.336;2023-04-24T12:10:09;94263.75;;;18.15;100.00
10706;BME280;5404;42.656;23.336;2023-04-24T12:12:35;94256.97;;;18.40;100.00
10706;BME280;5404;42.656;23.336;2023-04-24T12:15:01;94257.41;;;18.84;100.00
10706;BME280;5404;42.656;23.336;2023-04-24T12:17:32;94255.91;;;18.86;100.00
10706;BME280;5404;42.656;23.336;2023-04-24T12:20:05;94258.13;;;18.81;98.44
10706;BME280;5404;42.656;23.336;2023-04-24T12:22:50;94266.25;;;19.03;99.97
10706;BME280;5404;42.656;23.336;2023-04-24T12:25:19;94252.00;;;19.29;95.94
10706;BME280;5404;42.656;23.336;2023-04-24T12:27:46;94249.19;;;19.22;93.33
10706;BME280;5404;42.656;23.336;2023-04-24T12:30:16;94247.63;;;18.76;91.75
10706;BME280;5404;42.656;23.336;2023-04-24T12:32:43;94226.44;;;18.36;96.73
10706;BME280;5404;42.656;23.336;2023-04-24T12:35:10;94247.16;;;18.32;99.91
10706;BME280;5404;42.656;23.336;2023-04-24T12:37:38;94227.59;;;18.16;100.00
10706;BME280;5404;42.656;23.336;2023-04-24T12:40:12;94233.59;;;18.09;100.00
10706;BME280;5404;42.656;23.336;2023-04-24T12:42:51;94216.50;;;18.02;100.00
10706;BME280;5404;42.656;23.336;2023-04-24T12:45:17;94211.94;;;18.06;100.00
10706;BME280;5404;42.656;23.336;2023-04-24T12:47:44;94204.72;;;17.91;100.00
10706;BME280;5404;42.656;23.336;2023-04-24T12:50:15;94200.25;;;17.98;100.00
10706;BME280;5404;42.656;23.336;2023-04-24T12:52:41;94195.78;;;18.06;100.00
10706;BME280;5404;42.656;23.336;2023-04-24T12:55:07;94138.50;;;17.90;99.59
10706;BME280;5404;42.656;23.336;2023-04-24T12:57:35;94178.56;;;17.91;100.00
10706;BME280;5404;42.656;23.336;2023-04-24T13:00:01;94155.09;;;17.92;100.00
10706;BME280;5404;42.656;23.336;2023-04-24T13:02:29;94160.41;;;18.07;99.43
10706;BME280;5404;42.656;23.336;2023-04-24T13:04:56;94157.19;;;18.21;98.67
10706;BME280;5404;42.656;23.336;2023-04-24T13:07:23;94158.50;;;18.30;98.56
10706;BME280;5404;42.656;23.336;2023-04-24T13:09:50;94146.59;;;18.50;98.03